createdAt,value
2019-03-26T00:00:41.818Z,2.23
2019-03-26T00:03:11.254Z,2.67
2019-03-26T00:05:40.774Z,2.27
2019-03-26T00:08:10.203Z,2.47
2019-03-26T00:10:39.724Z,2.40
2019-03-26T00:13:09.239Z,2.00
2019-03-26T00:15:38.569Z,2.60
2019-03-26T00:18:07.900Z,2.30
2019-03-26T00:20:38.274Z,1.87
2019-03-26T00:23:07.937Z,2.77
2019-03-26T00:25:37.476Z,2.57
2019-03-26T00:28:07.018Z,2.30
2019-03-26T00:30:36.751Z,2.60
2019-03-26T00:33:06.122Z,2.23
2019-03-26T00:35:35.485Z,2.83
2019-03-26T00:38:04.957Z,2.87
2019-03-26T00:40:34.391Z,1.70
2019-03-26T00:43:03.916Z,1.73
2019-03-26T00:45:33.397Z,1.90
2019-03-26T00:48:02.818Z,2.15
2019-03-26T00:50:32.212Z,2.23
2019-03-26T00:53:01.733Z,1.93
2019-03-26T00:55:31.276Z,1.83
2019-03-26T00:58:01.841Z,2.33
2019-03-26T01:00:47.150Z,1.87
2019-03-26T01:03:16.634Z,1.80
2019-03-26T01:05:46.196Z,2.17
2019-03-26T01:08:15.649Z,2.00
2019-03-26T01:10:45.217Z,1.90
2019-03-26T01:13:14.782Z,1.83
2019-03-26T01:15:44.197Z,2.00
2019-03-26T01:18:13.833Z,2.00
2019-03-26T01:20:43.234Z,2.03
2019-03-26T01:23:12.766Z,2.00
2019-03-26T01:25:42.437Z,2.13
2019-03-26T01:28:12.045Z,1.90
2019-03-26T01:30:41.546Z,2.67
2019-03-26T01:33:11.028Z,2.00
2019-03-26T01:35:40.362Z,2.37
2019-03-26T01:38:09.784Z,2.10
2019-03-26T01:40:39.232Z,2.17
2019-03-26T01:43:08.778Z,2.47
2019-03-26T01:45:38.169Z,1.73
2019-03-26T01:48:07.762Z,1.93
2019-03-26T01:50:37.229Z,1.90
2019-03-26T01:53:06.789Z,2.17
2019-03-26T01:55:36.290Z,2.43
2019-03-26T01:58:05.819Z,2.27
2019-03-26T02:00:35.271Z,2.43
2019-03-26T02:03:04.842Z,2.40
2019-03-26T02:05:34.275Z,2.50
2019-03-26T04:31:35.838Z,2.33
2019-03-26T04:34:05.268Z,2.30
2019-03-26T04:36:34.762Z,2.00
2019-03-26T04:39:05.198Z,2.33
2019-03-26T04:41:34.724Z,2.77
2019-03-26T04:44:04.197Z,2.40
2019-03-26T04:46:33.658Z,1.80
2019-03-26T04:49:03.131Z,2.77
2019-03-26T04:51:32.713Z,2.73
2019-03-26T04:54:02.178Z,2.67
2019-03-26T04:56:31.787Z,2.33
2019-03-26T04:59:01.175Z,1.97
2019-03-26T05:01:30.563Z,1.97
2019-03-26T05:04:00.016Z,1.97
2019-03-26T05:06:38.044Z,1.90
2019-03-26T05:09:00.732Z,2.40
2019-03-26T05:11:30.322Z,3.10
2019-03-26T05:13:59.739Z,2.90
2019-03-26T05:16:29.156Z,2.83
2019-03-26T05:18:58.699Z,2.73
2019-03-26T05:21:28.239Z,2.60
2019-03-26T05:23:57.680Z,4.03
2019-03-26T05:26:27.192Z,2.33
2019-03-26T05:28:56.721Z,2.60
2019-03-26T05:31:26.234Z,3.90
2019-03-26T05:33:55.716Z,3.23
2019-03-26T05:36:25.041Z,3.40
2019-03-26T05:38:54.616Z,4.70
2019-03-26T05:41:24.030Z,4.40
2019-03-26T05:43:53.460Z,4.10
2019-03-26T05:46:22.934Z,4.40
2019-03-26T05:48:52.386Z,3.10
2019-03-26T05:51:21.871Z,3.30
2019-03-26T05:53:51.433Z,3.80
2019-03-26T05:56:20.979Z,3.23
2019-03-26T05:58:50.462Z,3.23
2019-03-26T06:01:19.869Z,3.37
2019-03-26T06:03:49.351Z,5.47
2019-03-26T06:06:18.778Z,2.60
2019-03-26T06:08:48.116Z,3.63
2019-03-26T06:11:17.751Z,3.77
2019-03-26T06:13:47.306Z,3.07
2019-03-26T06:16:16.843Z,4.17
2019-03-26T06:18:46.440Z,4.27
2019-03-26T06:21:16.097Z,3.87
2019-03-26T06:23:45.603Z,4.73
2019-03-26T06:26:15.121Z,5.65
2019-03-26T06:28:44.591Z,5.73
2019-03-26T06:31:14.096Z,4.77
2019-03-26T06:33:43.509Z,4.53
2019-03-26T06:36:12.961Z,5.40
2019-03-26T06:38:42.447Z,4.93
2019-03-26T06:41:12.023Z,5.80
2019-03-26T06:43:41.460Z,5.03
2019-03-26T06:46:10.975Z,4.97
2019-03-26T06:48:40.443Z,5.80
2019-03-26T06:51:09.899Z,6.23
2019-03-26T06:53:39.421Z,6.13
2019-03-26T06:56:08.825Z,5.87
2019-03-26T06:58:38.216Z,6.87
2019-03-26T07:01:08.108Z,6.87
2019-03-26T07:03:37.610Z,7.53
2019-03-26T07:06:07.029Z,7.57
2019-03-26T07:08:36.488Z,7.83
2019-03-26T07:11:06.110Z,7.57
2019-03-26T07:13:35.562Z,7.60
2019-03-26T07:16:05.127Z,7.70
2019-03-26T07:18:34.611Z,8.97
2019-03-26T07:21:04.161Z,7.37
2019-03-26T07:23:33.687Z,6.50
2019-03-26T07:26:03.227Z,8.83
2019-03-26T07:28:32.722Z,8.33
2019-03-26T07:31:02.604Z,7.13
2019-03-26T07:33:32.108Z,5.00
2019-03-26T07:36:01.597Z,5.60
2019-03-26T07:38:31.003Z,4.73
2019-03-26T07:41:00.376Z,3.70
2019-03-26T07:43:29.796Z,2.60
2019-03-26T07:45:59.420Z,2.90
2019-03-26T07:48:28.938Z,2.03
2019-03-26T07:50:58.376Z,2.97
2019-03-26T07:53:27.893Z,2.53
2019-03-26T07:55:57.340Z,2.10
2019-03-26T07:58:26.712Z,3.27
2019-03-26T08:00:56.220Z,2.50
2019-03-26T08:03:25.614Z,2.67
2019-03-26T08:05:55.140Z,2.93
2019-03-26T08:08:24.586Z,2.53
2019-03-26T08:10:54.010Z,2.50
2019-03-26T08:13:23.537Z,2.43
2019-03-26T08:15:52.938Z,3.02
2019-03-26T08:18:22.480Z,2.60
2019-03-26T08:20:51.891Z,2.80
2019-03-26T08:23:21.305Z,3.17
2019-03-26T08:25:50.825Z,3.30
2019-03-26T08:28:20.210Z,3.50
2019-03-26T08:30:50.314Z,3.67
2019-03-26T08:33:23.248Z,4.00
2019-03-26T08:35:51.404Z,4.00
2019-03-26T08:38:21.646Z,3.23
2019-03-26T08:40:51.047Z,4.70
2019-03-26T08:43:20.622Z,4.23
2019-03-26T08:45:50.096Z,4.07
2019-03-26T08:48:19.575Z,3.90
2019-03-26T08:50:49.095Z,3.77
2019-03-26T08:53:18.510Z,6.67
2019-03-26T08:55:47.849Z,7.00
2019-03-26T08:58:17.343Z,7.90
2019-03-26T09:00:46.848Z,8.87
2019-03-26T09:03:16.399Z,9.70
2019-03-26T09:05:45.900Z,9.40
2019-03-26T09:08:25.240Z,10.60
2019-03-26T09:10:51.883Z,11.83
2019-03-26T09:13:18.211Z,11.17
2019-03-26T09:15:47.622Z,9.93
2019-03-26T09:18:17.301Z,10.23
2019-03-26T09:20:46.780Z,8.90
2019-03-26T09:23:17.023Z,11.00
2019-03-26T09:25:46.643Z,12.00
2019-03-26T09:28:16.047Z,10.90
2019-03-26T09:30:45.588Z,7.13
2019-03-26T09:33:14.996Z,9.25
2019-03-26T09:35:44.371Z,9.97
2019-03-26T09:38:13.920Z,10.43
2019-03-26T09:40:43.299Z,9.83
2019-03-26T09:43:12.725Z,10.00
2019-03-26T09:45:42.137Z,11.07
2019-03-26T09:48:11.669Z,10.13
2019-03-26T09:50:41.167Z,12.10
2019-03-26T09:53:10.584Z,10.67
2019-03-26T09:55:40.298Z,11.47
2019-03-26T09:58:09.687Z,11.63
2019-03-26T10:00:39.293Z,11.27
2019-03-26T10:03:09.267Z,10.37
2019-03-26T10:05:38.796Z,11.23
2019-03-26T10:08:08.429Z,9.80
2019-03-26T10:10:37.948Z,10.23
2019-03-26T10:13:07.593Z,10.23
2019-03-26T10:15:36.990Z,7.57
2019-03-26T10:18:06.552Z,11.13
2019-03-26T10:20:35.835Z,9.33
2019-03-26T10:23:05.360Z,9.77
2019-03-26T10:25:34.885Z,9.40
2019-03-26T10:28:04.430Z,9.47
2019-03-26T10:30:39.099Z,9.77
2019-03-26T10:33:09.143Z,9.60
2019-03-26T10:35:38.651Z,8.40
2019-03-26T10:38:08.264Z,8.83
2019-03-26T10:40:39.100Z,8.63
2019-03-26T10:43:08.638Z,7.60
2019-03-26T10:45:38.059Z,10.05
2019-03-26T10:48:07.548Z,9.47
2019-03-26T10:50:37.177Z,9.63
2019-03-26T10:53:06.785Z,9.73
2019-03-26T10:55:36.485Z,9.63
2019-03-26T10:58:05.971Z,8.70
2019-03-26T11:00:35.431Z,9.20
2019-03-26T11:03:04.903Z,9.17
2019-03-26T11:05:34.496Z,8.80
2019-03-26T11:08:04.158Z,9.40
2019-03-26T11:10:33.603Z,8.00
2019-03-26T11:13:03.112Z,8.90
2019-03-26T11:15:32.644Z,10.47
2019-03-26T11:18:02.008Z,10.13
2019-03-26T11:20:31.882Z,9.60
2019-03-26T11:23:03.341Z,10.40
2019-03-26T11:25:35.108Z,9.57
2019-03-26T11:28:06.614Z,9.30
2019-03-26T11:30:36.980Z,8.03
2019-03-26T11:33:06.547Z,9.43
2019-03-26T11:35:35.988Z,8.90
2019-03-26T11:38:05.820Z,9.37
2019-03-26T11:40:35.470Z,8.27
2019-03-26T11:43:04.997Z,7.27
2019-03-26T11:45:34.470Z,7.07
2019-03-26T11:48:03.859Z,6.63
2019-03-26T11:50:33.369Z,6.90
2019-03-26T11:53:02.905Z,6.10
2019-03-26T11:55:32.311Z,5.33
2019-03-26T11:58:01.682Z,7.00
2019-03-26T12:00:33.944Z,5.37
2019-03-26T12:03:03.521Z,6.17
2019-03-26T12:05:34.496Z,6.37
2019-03-26T12:08:04.032Z,6.37
2019-03-26T12:10:33.540Z,6.63
2019-03-26T12:13:03.021Z,6.70
2019-03-26T12:15:32.399Z,6.30
2019-03-26T12:18:01.881Z,6.23
2019-03-26T12:20:31.287Z,6.87
2019-03-26T12:23:00.953Z,4.80
2019-03-26T12:25:30.521Z,5.93
2019-03-26T12:28:00.041Z,5.57
2019-03-26T12:30:37.375Z,4.77
2019-03-26T12:33:09.116Z,4.80
2019-03-26T12:35:44.215Z,5.13
2019-03-26T12:38:18.276Z,4.40
2019-03-26T12:40:47.978Z,4.23
2019-03-26T12:43:17.643Z,6.00
2019-03-26T12:45:47.215Z,4.67
2019-03-26T12:48:16.857Z,4.33
2019-03-26T12:50:46.343Z,4.70
2019-03-26T12:53:15.841Z,4.33
2019-03-26T12:55:45.351Z,2.07
2019-03-26T12:58:14.749Z,3.23
2019-03-26T13:00:44.084Z,3.87
2019-03-26T13:03:13.633Z,3.87
2019-03-26T13:05:43.142Z,4.00
2019-03-26T13:08:12.540Z,3.43
2019-03-26T13:10:52.707Z,4.77
2019-03-26T13:13:13.204Z,4.62
2019-03-26T13:15:42.727Z,3.70
2019-03-26T13:18:12.201Z,4.70
2019-03-26T13:20:41.664Z,2.87
2019-03-26T13:23:11.082Z,3.93
2019-03-26T13:25:40.389Z,4.20
2019-03-26T13:28:09.802Z,3.67
2019-03-26T13:30:39.393Z,3.93
2019-03-26T13:33:08.875Z,3.47
2019-03-26T13:35:38.321Z,2.97
2019-03-26T13:38:07.778Z,3.73
2019-03-26T13:40:37.187Z,3.53
2019-03-26T13:43:06.615Z,3.10
2019-03-26T13:45:36.286Z,2.47
2019-03-26T13:48:05.757Z,2.93
2019-03-26T13:50:35.513Z,2.70
2019-03-26T13:53:05.032Z,3.00
2019-03-26T13:55:34.640Z,2.67
2019-03-26T13:58:04.097Z,2.73
2019-03-26T14:00:35.676Z,2.30
2019-03-26T14:03:05.288Z,1.77
2019-03-26T14:05:34.824Z,2.50
2019-03-26T14:08:04.435Z,2.57
2019-03-26T14:10:40.800Z,2.67
2019-03-26T14:13:05.354Z,2.33
2019-03-26T14:15:34.887Z,2.20
2019-03-26T14:18:04.382Z,2.90
2019-03-26T14:20:33.912Z,1.93
2019-03-26T14:23:03.386Z,2.33
2019-03-26T14:25:32.898Z,2.73
2019-03-26T14:28:02.302Z,3.43
2019-03-26T14:30:42.915Z,3.00
2019-03-26T14:33:12.431Z,3.50
2019-03-26T14:35:41.973Z,2.97
2019-03-26T14:38:11.412Z,2.33
2019-03-26T14:40:53.592Z,3.30
2019-03-26T14:43:12.460Z,3.87
2019-03-26T14:45:42.522Z,3.57
2019-03-26T14:48:12.080Z,3.37
2019-03-26T14:50:41.576Z,2.97
2019-03-26T14:53:11.512Z,3.63
2019-03-26T14:55:40.917Z,3.80
2019-03-26T14:58:10.495Z,3.13
2019-03-26T15:00:40.044Z,3.63
2019-03-26T15:03:09.522Z,3.50
2019-03-26T15:05:39.138Z,2.87
2019-03-26T15:08:08.722Z,3.83
2019-03-26T15:10:38.201Z,4.07
2019-03-26T15:13:07.742Z,4.13
2019-03-26T15:15:37.169Z,3.83
2019-03-26T15:18:06.744Z,3.90
2019-03-26T15:20:36.410Z,3.93
2019-03-26T15:23:06.090Z,4.03
2019-03-26T15:25:36.786Z,3.67
2019-03-26T15:28:06.206Z,4.87
2019-03-26T15:30:35.743Z,5.27
2019-03-26T15:33:06.147Z,5.77
2019-03-26T15:35:35.717Z,5.87
2019-03-26T15:38:05.232Z,5.80
2019-03-26T15:40:34.742Z,5.80
2019-03-26T15:43:04.178Z,5.50
2019-03-26T15:45:33.587Z,6.37
2019-03-26T15:48:03.113Z,5.80
2019-03-26T15:50:43.309Z,5.30
2019-03-26T15:53:13.376Z,5.90
2019-03-26T15:55:43.021Z,6.27
2019-03-26T15:58:12.948Z,5.37
2019-03-26T16:00:42.661Z,5.63
2019-03-26T16:03:12.179Z,5.40
2019-03-26T16:05:41.627Z,5.97
2019-03-26T16:08:11.219Z,4.97
2019-03-26T16:10:40.527Z,4.50
2019-03-26T16:13:10.024Z,5.23
2019-03-26T16:15:44.916Z,4.33
2019-03-26T16:18:10.650Z,4.77
2019-03-26T16:20:40.226Z,4.07
2019-03-26T16:23:09.694Z,4.17
2019-03-26T16:25:39.177Z,3.27
2019-03-26T16:28:08.747Z,4.17
2019-03-26T16:30:38.269Z,4.23
2019-03-26T16:33:07.909Z,5.27
2019-03-26T16:35:40.074Z,3.85
2019-03-26T16:38:08.600Z,3.70
2019-03-26T16:40:38.122Z,4.47
2019-03-26T16:43:07.728Z,3.47
2019-03-26T16:45:37.906Z,4.37
2019-03-26T16:48:07.413Z,4.30
2019-03-26T16:50:36.731Z,3.70
2019-03-26T16:53:06.160Z,4.13
2019-03-26T16:55:35.588Z,3.80
2019-03-26T16:58:05.021Z,3.57
2019-03-26T17:00:35.464Z,3.60
2019-03-26T17:03:05.726Z,2.53
2019-03-26T17:05:35.186Z,3.83
2019-03-26T17:08:04.743Z,3.63
2019-03-26T17:10:34.152Z,3.03
2019-03-26T17:13:03.754Z,4.10
2019-03-26T17:15:33.201Z,3.83
2019-03-26T17:18:02.639Z,3.43
2019-03-26T17:20:32.188Z,3.37
2019-03-26T17:23:01.666Z,3.37
2019-03-26T17:25:31.220Z,3.40
2019-03-26T17:28:00.725Z,3.57
2019-03-26T17:30:30.203Z,3.53
2019-03-26T17:32:59.709Z,2.87
2019-03-26T17:35:29.147Z,3.70
2019-03-26T17:38:00.270Z,5.00
2019-03-26T17:40:30.066Z,3.60
2019-03-26T17:42:59.569Z,3.43
2019-03-26T17:45:28.986Z,3.70
2019-03-26T17:47:58.560Z,3.60
2019-03-26T17:50:28.098Z,4.63
2019-03-26T17:52:57.611Z,4.40
2019-03-26T17:55:27.217Z,3.77
2019-03-26T17:57:56.662Z,3.30
2019-03-26T18:00:46.228Z,3.80
2019-03-26T18:03:26.204Z,3.90
2019-03-26T18:05:47.004Z,3.80
2019-03-26T18:08:16.456Z,3.77
2019-03-26T18:10:46.026Z,4.77
2019-03-26T18:13:15.468Z,4.70
2019-03-26T18:15:45.188Z,4.73
2019-03-26T18:18:14.822Z,4.00
2019-03-26T18:20:44.308Z,4.77
2019-03-26T18:23:13.782Z,4.53
2019-03-26T18:25:43.278Z,4.20
2019-03-26T18:28:14.254Z,4.67
2019-03-26T18:30:43.651Z,4.80
2019-03-26T18:33:13.105Z,5.23
2019-03-26T18:35:42.469Z,5.33
2019-03-26T18:38:14.749Z,5.37
2019-03-26T18:40:43.026Z,5.83
2019-03-26T18:43:12.446Z,4.80
2019-03-26T18:45:41.876Z,5.97
2019-03-26T18:48:11.368Z,6.77
2019-03-26T18:50:40.686Z,6.33
2019-03-26T18:53:10.090Z,6.13
2019-03-26T18:55:39.676Z,7.47
2019-03-26T18:58:09.049Z,8.60
2019-03-26T19:00:39.280Z,7.53
2019-03-26T19:03:09.309Z,7.17
2019-03-26T19:05:39.724Z,8.37
2019-03-26T19:08:09.413Z,7.40
2019-03-26T19:10:39.042Z,8.20
2019-03-26T19:13:19.071Z,8.50
2019-03-26T19:15:39.870Z,8.57
2019-03-26T19:18:09.574Z,8.30
2019-03-26T19:20:39.208Z,7.77
2019-03-26T19:23:08.759Z,7.67
2019-03-26T19:25:38.331Z,8.97
2019-03-26T19:28:07.887Z,8.90
2019-03-26T19:30:37.174Z,8.55
2019-03-26T19:33:06.651Z,8.03
2019-03-26T19:35:36.171Z,8.47
2019-03-26T19:38:06.087Z,8.70
2019-03-26T19:40:35.693Z,9.50
2019-03-26T19:43:10.828Z,10.20
2019-03-26T19:45:36.519Z,9.55
2019-03-26T19:48:06.322Z,9.10
2019-03-26T19:50:35.606Z,8.50
2019-03-26T19:53:05.160Z,10.53
2019-03-26T19:55:34.698Z,9.03
2019-03-26T19:58:04.213Z,10.37
2019-03-26T20:00:33.830Z,10.53
2019-03-26T20:03:03.436Z,9.60
2019-03-26T20:05:35.307Z,9.70
2019-03-26T20:08:04.303Z,10.37
2019-03-26T20:10:34.945Z,11.93
2019-03-26T20:13:04.561Z,11.03
2019-03-26T20:15:34.192Z,9.40
2019-03-26T20:18:03.445Z,9.70
2019-03-26T20:20:33.151Z,11.23
2019-03-26T20:23:02.676Z,10.10
2019-03-26T20:25:32.142Z,7.43
2019-03-26T20:28:02.711Z,9.33
2019-03-26T20:30:32.229Z,10.23
2019-03-26T20:33:01.812Z,8.57
2019-03-26T20:35:31.246Z,9.20
2019-03-26T20:38:00.954Z,10.17
2019-03-26T20:40:30.337Z,6.67
2019-03-26T20:43:00.530Z,10.47
2019-03-26T20:45:30.165Z,10.20
2019-03-26T20:47:59.760Z,9.20
2019-03-26T20:50:29.326Z,10.87
2019-03-26T20:52:58.819Z,10.10
2019-03-26T20:55:32.367Z,11.07
2019-03-26T20:58:02.535Z,11.10
2019-03-26T21:00:37.070Z,10.07
2019-03-26T21:03:07.347Z,9.57
2019-03-26T21:05:37.601Z,11.33
2019-03-26T21:08:07.295Z,10.73
2019-03-26T21:10:36.833Z,11.20
2019-03-26T21:13:06.386Z,11.30
2019-03-26T21:15:35.849Z,10.33
2019-03-26T21:18:05.514Z,11.43
2019-03-26T21:20:35.405Z,11.30
2019-03-26T21:23:05.033Z,9.87
2019-03-26T21:25:34.643Z,10.75
2019-03-26T21:28:04.303Z,10.83
2019-03-26T21:30:33.786Z,11.43
2019-03-26T21:33:03.215Z,12.73
2019-03-26T21:35:32.640Z,12.10
2019-03-26T21:38:02.186Z,12.33
2019-03-26T21:40:32.104Z,10.97
2019-03-26T21:43:01.614Z,12.67
2019-03-26T21:45:39.350Z,13.70
2019-03-26T21:48:09.106Z,12.37
2019-03-26T21:50:38.765Z,11.80
2019-03-26T21:53:08.276Z,11.57
2019-03-26T21:55:37.777Z,12.10
2019-03-26T21:58:07.501Z,12.17
2019-03-26T22:00:37.035Z,11.00
2019-03-26T22:03:06.560Z,12.47
2019-03-26T22:05:36.043Z,12.63
2019-03-26T22:08:05.958Z,13.67
2019-03-26T22:10:35.398Z,13.57
2019-03-26T22:13:04.866Z,12.47
2019-03-26T22:15:34.412Z,13.40
2019-03-26T22:18:03.992Z,11.30
2019-03-26T22:20:33.569Z,12.40
2019-03-26T22:23:03.315Z,12.47
2019-03-26T22:25:32.899Z,12.23
2019-03-26T22:28:02.374Z,11.97
2019-03-26T22:30:32.178Z,12.20
2019-03-26T22:33:01.601Z,11.97
2019-03-26T22:35:31.129Z,12.30
2019-03-26T22:38:00.627Z,12.30
2019-03-26T22:40:30.063Z,11.10
2019-03-26T22:42:59.447Z,10.87
2019-03-26T22:45:28.861Z,11.33
2019-03-26T22:47:58.304Z,12.17
2019-03-26T22:50:27.955Z,10.77
2019-03-26T22:52:57.387Z,10.32
2019-03-26T22:55:26.910Z,11.13
2019-03-26T22:57:56.319Z,12.30
2019-03-26T23:00:27.167Z,10.90
2019-03-26T23:02:56.626Z,10.13
2019-03-26T23:05:26.484Z,11.93
2019-03-26T23:07:55.912Z,11.00
2019-03-26T23:10:25.312Z,10.60
2019-03-26T23:12:54.829Z,11.40
2019-03-26T23:15:25.204Z,10.07
2019-03-26T23:17:54.943Z,11.30
2019-03-26T23:20:24.417Z,9.67
2019-03-26T23:22:53.916Z,10.90
2019-03-26T23:25:23.433Z,10.77
2019-03-26T23:27:53.055Z,11.40
2019-03-26T23:30:22.561Z,10.50
2019-03-26T23:32:51.983Z,10.67
2019-03-26T23:35:21.477Z,11.63
2019-03-26T23:37:51.230Z,11.13
2019-03-26T23:40:20.631Z,10.27
2019-03-26T23:42:50.111Z,11.27
2019-03-26T23:45:19.522Z,11.80
2019-03-26T23:47:48.945Z,11.23
2019-03-26T23:50:18.574Z,10.80
2019-03-26T23:52:48.019Z,11.10
2019-03-26T23:55:17.533Z,10.70
2019-03-26T23:57:47.203Z,9.80
